ADDS METAR Data INFO
IDs: Format: Raw Decoded Include TAF

Data at: 1548 UTC 24 Sep 2017

KELA 241535Z AUTO 12009KT 10SM BKN020 29/25 A2991 RMK AO2 T02890246
KELA 241515Z AUTO 14011KT 10SM SCT018 29/25 A2991 RMK AO2 T02930247
KELA 241455Z AUTO 13006KT 10SM CLR 29/25 A2990 RMK AO2 T02860250
KELA 241435Z AUTO 11007KT 10SM CLR 28/25 A2990 RMK AO2 T02750250
KELA 241415Z AUTO 11005KT 10SM CLR 27/25 A2989 RMK AO2 T02650249
KELA 241355Z AUTO 11004KT 7SM CLR 25/25 A2989 RMK AO2 T02530245
KELA 241335Z AUTO 10003KT 5SM BR CLR 24/24 A2989 RMK AO2 T02400240
KELA 241315Z AUTO 08003KT 2 1/2SM BR CLR 23/23 A2989 RMK AO2 T02300230
KELA 241255Z AUTO 07003KT 1 1/2SM BR VV007 22/22 A2988 RMK AO2 T02180218
KELA 241235Z AUTO 00000KT 1/4SM FG VV002 21/21 A2988 RMK AO2 T02120212
KELA 241215Z AUTO 00000KT 1SM BR VV007 21/21 A2988 RMK AO2 T02120212
KELA 241155Z AUTO 06003KT 2SM BR CLR 21/21 A2987 RMK AO2 T02110211 10225 20208
KELA 241135Z AUTO 00000KT 2SM BR CLR 21/21 A2987 RMK AO2 T02110211
KELA 241115Z AUTO 07003KT 1 3/4SM BR VV007 21/21 A2987 RMK AO2 T02110211
KELA 241055Z AUTO 08003KT 1/2SM FG VV005 21/21 A2986 RMK AO2 T02110211
KELA 241035Z AUTO 00000KT 1 1/4SM BR VV007 21/21 A2987 RMK AO2 T02110211
KELA 241015Z AUTO 00000KT 1 3/4SM BR VV007 21/21 A2987 RMK AO2 T02100210
KELA 240955Z AUTO 07003KT 2SM BR CLR 21/21 A2987 RMK AO2 T02100210
KELA 240935Z AUTO 00000KT 2 1/2SM BR CLR 21/21 A2987 RMK AO2 T02090209
KELA 240915Z AUTO 07003KT 3SM BR CLR 21/21 A2987 RMK AO2 T02100210
KELA 240855Z AUTO 05003KT 2SM BR CLR 21/21 A2988 RMK AO2 T02110211
KELA 240835Z AUTO 00000KT 2SM BR CLR 22/22 A2988 RMK AO2 T02170217
KELA 240815Z AUTO 00000KT 4SM BR CLR 21/21 A2988 RMK AO2 T02110211
KELA 240755Z AUTO 08003KT 3SM BR CLR 21/21 A2988 RMK AO2 T02100210
KELA 240735Z AUTO 00000KT 3SM BR CLR 22/22 A2989 RMK AO2 T02180218
KELA 240715Z AUTO 00000KT 4SM BR CLR 22/22 A2989 RMK AO2 T02200220
KELA 240655Z AUTO 00000KT 4SM BR CLR 22/22 A2988 RMK AO2 LTG DSNT W T02170217
KELA 240635Z AUTO 00000KT 5SM BR CLR 22/22 A2989 RMK AO2 T02210221
KELA 240615Z AUTO 00000KT 5SM BR CLR 23/23 A2989 RMK AO2 T02250225
KELA 240555Z AUTO 00000KT 10SM CLR 23/22 A2988 RMK AO2 T02250223 10294 20225 403360205
KELA 240535Z AUTO 00000KT 10SM CLR 23/22 A2988 RMK AO2 T02250223
KELA 240515Z AUTO 00000KT 10SM CLR 23/22 A2988 RMK AO2 T02260224
KELA 240455Z AUTO 11003KT 10SM CLR 23/23 A2988 RMK AO2 T02310226
KELA 240435Z AUTO 00000KT 10SM CLR 23/22 A2989 RMK AO2 T02300223
KELA 240415Z AUTO 00000KT 10SM CLR 24/23 A2988 RMK AO2 T02350226
KELA 240355Z AUTO 15003KT 10SM CLR 24/23 A2989 RMK AO2 T02360226
KELA 240335Z AUTO 13003KT 10SM CLR 24/23 A2988 RMK AO2 T02400228
KELA 240315Z AUTO 14003KT 10SM CLR 25/23 A2988 RMK AO2 T02450230
KELA 240255Z AUTO 14005KT 10SM CLR 25/23 A2988 RMK AO2 T02490230
KELA 240235Z AUTO 13005KT 10SM CLR 25/23 A2988 RMK AO2 T02500230
KELA 240215Z AUTO 14004KT 10SM CLR 25/23 A2988 RMK AO2 T02530230
KELA 240155Z AUTO 14005KT 10SM CLR 26/23 A2987 RMK AO2 T02560229
KELA 240135Z AUTO 13004KT 10SM CLR 26/23 A2987 RMK AO2 T02600229
KELA 240115Z AUTO 14004KT 10SM CLR 27/23 A2986 RMK AO2 T02650228
KELA 240055Z AUTO 14005KT 10SM CLR 27/23 A2985 RMK AO2 T02730227
KELA 240035Z AUTO 13006KT 10SM CLR 28/23 A2985 RMK AO2 T02780227
KELA 240015Z AUTO 13008KT 10SM CLR 29/22 A2985 RMK AO2 T02860223
KELA 232355Z AUTO 13007KT 10SM CLR 30/22 A2985 RMK AO2 T02950220 10336 20295
KELA 232335Z AUTO 14006KT 10SM CLR 31/22 A2985 RMK AO2 T03050216
KELA 232315Z AUTO 13006KT 10SM SCT048 31/22 A2985 RMK AO2 T03100218
KELA 232255Z AUTO 14007KT 10SM BKN046 32/22 A2985 RMK AO2 T03180222
KELA 232235Z AUTO 13005KT 10SM BKN046 BKN055 32/23 A2984 RMK AO2 T03220230
KELA 232215Z AUTO 00000KT 10SM SCT048 SCT055 SCT120 31/24 A2985 RMK AO2 T03050235
KELA 232155Z AUTO 00000KT 10SM SCT048 BKN055 BKN070 30/23 A2985 RMK AO2 T03010227
KELA 232135Z AUTO 21006KT 10SM SCT055 SCT075 SCT080 30/23 A2986 RMK AO2 T03000226
KELA 232115Z AUTO 12007KT 10SM SCT065 SCT070 SCT085 31/22 A2985 RMK AO2 T03070221
KELA 232055Z AUTO 10008KT 10SM SCT050 SCT065 SCT085 32/23 A2986 RMK AO2 T03150226
KELA 232035Z AUTO 08006KT 10SM SCT050 SCT075 32/22 A2986 RMK AO2 T03240215
KELA 232015Z AUTO 15005KT 10SM SCT048 SCT060 SCT075 32/22 A2987 RMK AO2 T03160220
KELA 231955Z AUTO 12005KT 10SM SCT047 SCT060 BKN080 32/21 A2987 RMK AO2 T03170213
KELA 231935Z AUTO 10004KT 10SM BKN045 BKN060 BKN080 33/22 A2988 RMK AO2 T03260218
KELA 231915Z AUTO 15006KT 10SM BKN043 BKN050 BKN060 33/22 A2989 RMK AO2 T03340223
KELA 231855Z AUTO 13006KT 110V170 10SM SCT043 SCT050 SCT060 32/22 A2989 RMK AO2 T03190220
KELA 231835Z AUTO 15006KT 10SM SCT045 SCT060 32/22 A2990 RMK AO2 T03240224
KELA 231815Z AUTO 19006KT 10SM SCT041 SCT047 32/23 A2991 RMK AO2 T03210226
KELA 231755Z AUTO 13007KT 10SM SCT038 SCT045 BKN050 31/22 A2992 RMK AO2 T03120222 10322 20215
KELA 231735Z AUTO 15004KT 10SM SCT036 SCT045 SCT055 32/23 A2993 RMK AO2 T03150225
KELA 231715Z AUTO 13006KT 10SM SCT036 31/22 A2993 RMK AO2 T03090224
KELA 231655Z AUTO 16007KT 10SM SCT034 SCT040 31/23 A2994 RMK AO2 T03090227
KELA 231635Z AUTO 17007KT 10SM SCT028 SCT038 31/23 A2994 RMK AO2 T03050228
KELA 231615Z AUTO 13008KT 10SM SCT021 SCT030 SCT034 31/24 A2994 RMK AO2 T03050239
KELA 231550Z AUTO 15006KT 10SM BKN020 BKN031 BKN039 29/25 A2994 RMK AO2 T02910245
KELA 231535Z AUTO 11006KT 10SM BKN016 BKN022 BKN027 29/25 A2994 RMK AO2 T02920248
KELA 231515Z AUTO 11006KT 10SM BKN012 OVC019 28/25 A2994 RMK AO2 T02760252
KELA 231455Z AUTO 11007KT 10SM SCT010 BKN016 27/26 A2994 RMK AO2 T02700257
KELA 231435Z AUTO 12004KT 10SM SCT006 27/26 A2993 RMK AO2 T02660261
KELA 231415Z AUTO 10004KT 7SM SCT002 26/26 A2993 RMK AO2 T02550255
KELA 231355Z AUTO 09003KT 3SM BR BKN002 25/25 A2993 RMK AO2 T02490249
KELA 231335Z AUTO 00000KT 1/4SM FG OVC002 24/24 A2993 RMK AO2 T02370237
KELA 231315Z AUTO 00000KT M1/4SM FG OVC002 23/23 A2992 RMK AO2 T02280228
KELA 231255Z AUTO 05003KT M1/4SM FG OVC002 22/22 A2992 RMK AO2 T02200220
KELA 231235Z AUTO 00000KT M1/4SM FG OVC002 22/22 A2992 RMK AO2 T02160215
KELA 231215Z AUTO 00000KT M1/4SM FG OVC002 22/22 A2992 RMK AO2 T02150215
KELA 231155Z AUTO 00000KT M1/4SM FG OVC002 21/21 A2992 RMK AO2 T02140214 10224 20205
KELA 231135Z AUTO 00000KT 1/4SM FG OVC002 21/21 A2991 RMK AO2 T02090209
KELA 231110Z AUTO 00000KT 1/4SM FG OVC002 21/21 A2991 RMK AO2 T02080208
KELA 231055Z AUTO 00000KT 1/4SM FG OVC002 21/21 A2991 RMK AO2 T02060206
KELA 231035Z AUTO 03003KT 1/4SM FG OVC002 21/21 A2991 RMK AO2 T02090209
KELA 231015Z AUTO 00000KT 2 1/2SM BR OVC002 21/21 A2991 RMK AO2 T02050205
KELA 230955Z AUTO 00000KT 1 3/4SM BR OVC002 21/21 A2991 RMK AO2 VIS 1V5 T02100210
KELA 230935Z AUTO 00000KT 4SM BR SCT002 21/21 A2991 RMK AO2 T02080208
KELA 230915Z AUTO 00000KT 2SM BR CLR 21/21 A2991 RMK AO2 T02120212
KELA 230855Z AUTO 00000KT 2 1/2SM BR CLR 22/22 A2991 RMK AO2 T02210221
KELA 230835Z AUTO 00000KT 2SM BR CLR 22/22 A2991 RMK AO2 T02220222
KELA 230815Z AUTO 00000KT 2 1/2SM BR CLR 22/22 A2991 RMK AO2 T02200220
KELA 230755Z AUTO 00000KT 2SM BR CLR 22/22 A2991 RMK AO2 T02210221
KELA 230735Z AUTO 00000KT 3SM BR CLR 22/22 A2992 RMK AO2 T02200220
KELA 230715Z AUTO 00000KT 4SM BR CLR 22/22 A2992 RMK AO2 T02200220
KELA 230655Z AUTO 08004KT 5SM BR CLR 22/22 A2992 RMK AO2 T02190219
KELA 230635Z AUTO 06003KT 5SM BR CLR 22/22 A2992 RMK AO2 T02180218
KELA 230615Z AUTO 07003KT 7SM CLR 22/22 A2992 RMK AO2 T02170216
KELA 230555Z AUTO 00000KT 7SM CLR 23/22 A2992 RMK AO2 T02250224 10289 20225 403370221
KELA 230535Z AUTO 00000KT 10SM CLR 23/23 A2992 RMK AO2 T02270226
KELA 230515Z AUTO 00000KT 10SM CLR 23/23 A2992 RMK AO2 T02300229
KELA 230455Z AUTO 00000KT 10SM CLR 23/23 A2992 RMK AO2 T02300229
KELA 230435Z AUTO 00000KT 10SM CLR 24/23 A2992 RMK AO2 T02350230
KELA 230415Z AUTO 13003KT 10SM CLR 24/23 A2992 RMK AO2 T02370230
KELA 230355Z AUTO 12003KT 10SM CLR 24/23 A2992 RMK AO2 T02400230